CheckWX is a tool to help pilots better visualize weather data.  It is not intended as a substitute for an official pre-flight weather briefing.

21:06:33 UTC

KABR METAR
Aberdeen Regional Airport
Aberdeen, South Dakota, USA
Current

14 mins ago

KABR 232053Z AUTO 00000KT 10SM OVC033 12/06 A3013 RMK AO2 PRESRR SLP209 T01220061 51013
Observed
May-23 @ 20:53 UTC
Visibility
10 SM
Flight Rules
VFR
Cloud Levels
  • Overcast at 3,300' AGL
Temperature
12°C / 54°F
Dewpoint
C / 43°F
Humidity
67%
Altimeter
30.13" Hg
Pressure
1020.32 hPa
Previous

40 mins ago

KABR 232027Z AUTO 01006KT 10SM BKN029 OVC034 12/06 A3011 RMK AO2 T01220061
Observed
May-23 @ 20:27 UTC
Wind
  • 010° at 6 KTS
Visibility
10 SM
Flight Rules
MVFR
Cloud Levels
  • Broken at 2,900' AGL
  • Overcast at 3,400' AGL
Temperature
12°C / 54°F
Dewpoint
C / 43°F
Humidity
67%
Altimeter
30.11" Hg
Pressure
1019.62 hPa
Previous

2 hours ago

KABR 231853Z AUTO 34012KT 10SM SCT028 OVC034 13/07 A3010 RMK AO2 SLP196 T01280067
Observed
May-23 @ 18:53 UTC
Wind
  • 340° at 12 KTS
Visibility
10 SM
Flight Rules
VFR
Cloud Levels
  • Scattered at 2,800' AGL
  • Overcast at 3,400' AGL
Temperature
13°C / 55°F
Dewpoint
C / 45°F
Humidity
67%
Altimeter
30.1" Hg
Pressure
1019.32 hPa